createdAt,value
2019-06-26T00:01:10.309Z,48.30
2019-06-26T00:03:41.197Z,52.33
2019-06-26T00:06:12.499Z,51.60
2019-06-26T00:08:43.220Z,55.48
2019-06-26T00:11:13.857Z,49.80
2019-06-26T00:13:44.602Z,52.00
2019-06-26T00:16:15.272Z,55.85
2019-06-26T00:18:45.932Z,54.40
2019-06-26T00:21:16.847Z,56.67
2019-06-26T00:23:47.681Z,54.77
2019-06-26T00:26:18.412Z,56.27
2019-06-26T00:28:49.053Z,55.60
2019-06-26T00:31:19.717Z,56.63
2019-06-26T00:33:50.366Z,59.75
2019-06-26T00:36:21.021Z,60.63
2019-06-26T00:38:51.668Z,56.08
2019-06-26T00:41:22.471Z,60.20
2019-06-26T00:43:53.200Z,67.20
2019-06-26T00:46:23.961Z,66.10
2019-06-26T00:48:54.586Z,71.90
2019-06-26T00:51:25.337Z,69.50
2019-06-26T00:53:55.959Z,71.67
2019-06-26T00:56:26.685Z,76.97
2019-06-26T00:58:57.417Z,73.42
2019-06-26T01:01:28.145Z,77.77
2019-06-26T01:04:00.422Z,82.27
2019-06-26T01:06:45.690Z,82.10
2019-06-26T01:09:16.374Z,83.40
2019-06-26T01:11:47.054Z,91.82
2019-06-26T01:14:17.652Z,85.85
2019-06-26T01:16:49.389Z,92.00
2019-06-26T01:19:20.091Z,88.75
2019-06-26T01:21:50.841Z,91.47
2019-06-26T01:24:21.530Z,91.82
2019-06-26T01:26:52.448Z,95.20
2019-06-26T01:29:24.047Z,96.75
2019-06-26T01:31:54.734Z,93.92
2019-06-26T01:34:25.436Z,93.50
2019-06-26T01:36:56.106Z,95.20
2019-06-26T01:39:26.801Z,96.80
2019-06-26T01:41:57.616Z,99.45
2019-06-26T01:44:28.251Z,93.40
2019-06-26T01:46:59.062Z,92.88
2019-06-26T01:49:29.703Z,97.67
2019-06-26T01:52:00.681Z,93.97
2019-06-26T01:54:31.360Z,94.83
2019-06-26T01:57:03.119Z,97.93
2019-06-26T01:59:33.769Z,99.40
2019-06-26T02:02:04.568Z,94.40
2019-06-26T02:04:36.228Z,105.90
2019-06-26T02:07:06.930Z,96.92
2019-06-26T02:09:37.567Z,100.55
2019-06-26T02:12:08.547Z,108.65
2019-06-26T02:14:39.192Z,99.28
2019-06-26T02:17:09.861Z,107.12
2019-06-26T02:19:40.561Z,101.85
2019-06-26T02:22:11.815Z,102.55
2019-06-26T02:24:43.444Z,104.70
2019-06-26T02:27:14.125Z,105.52
2019-06-26T02:29:44.766Z,105.83
2019-06-26T02:32:15.513Z,107.43
2019-06-26T02:34:46.258Z,109.60
2019-06-26T02:37:16.995Z,107.12
2019-06-26T02:39:47.851Z,103.40
2019-06-26T02:42:18.707Z,106.67
2019-06-26T02:44:53.958Z,104.17
2019-06-26T02:47:22.019Z,105.58
2019-06-26T02:49:52.718Z,109.07
2019-06-26T02:52:24.446Z,103.22
2019-06-26T02:54:55.247Z,107.12
2019-06-26T02:57:26.011Z,109.10
2019-06-26T02:59:56.744Z,105.80
2019-06-26T03:02:27.443Z,104.47
2019-06-26T03:04:58.185Z,105.50
2019-06-26T03:07:28.923Z,106.12
2019-06-26T03:09:59.689Z,106.52
2019-06-26T03:12:30.350Z,109.70
2019-06-26T03:15:08.658Z,110.52
2019-06-26T03:17:33.445Z,105.60
2019-06-26T03:20:07.358Z,100.90
2019-06-26T03:22:38.116Z,106.75
2019-06-26T03:25:09.129Z,102.27
2019-06-26T03:27:39.806Z,105.43
2019-06-26T03:30:13.633Z,104.47
2019-06-26T03:32:44.430Z,104.70
2019-06-26T03:35:15.469Z,102.78
2019-06-26T03:37:46.226Z,98.92
2019-06-26T03:40:18.594Z,93.03
2019-06-26T03:42:49.294Z,92.42
2019-06-26T03:45:25.722Z,88.60
2019-06-26T03:47:52.735Z,93.10
2019-06-26T03:50:23.723Z,96.30
2019-06-26T03:52:54.564Z,101.55
2019-06-26T03:55:25.267Z,98.37
2019-06-26T03:57:56.055Z,97.70
2019-06-26T04:00:44.086Z,90.83
2019-06-26T04:03:14.884Z,95.15
2019-06-26T04:05:45.772Z,91.32
2019-06-26T04:08:16.486Z,85.83
2019-06-26T04:10:47.385Z,82.13
2019-06-26T04:13:18.144Z,81.05
2019-06-26T04:15:50.936Z,83.97
2019-06-26T04:18:21.151Z,80.47
2019-06-26T04:20:51.786Z,81.10
2019-06-26T04:23:22.450Z,87.57
2019-06-26T04:25:53.078Z,80.07
2019-06-26T04:28:23.785Z,81.12
2019-06-26T04:30:54.566Z,73.92
2019-06-26T04:33:25.239Z,75.42
2019-06-26T04:35:55.849Z,74.25
2019-06-26T04:38:26.588Z,75.47
2019-06-26T04:40:57.218Z,69.72
2019-06-26T04:43:28.008Z,70.12
2019-06-26T04:45:59.770Z,71.72
2019-06-26T04:48:30.429Z,75.67
2019-06-26T04:51:01.203Z,76.97
2019-06-26T04:53:31.991Z,79.15
2019-06-26T04:56:02.684Z,78.65
2019-06-26T04:58:33.414Z,70.87
2019-06-26T05:01:04.311Z,78.70
2019-06-26T05:03:34.984Z,74.67
2019-06-26T05:06:06.950Z,76.82
2019-06-26T05:08:37.589Z,79.40
2019-06-26T05:11:08.350Z,73.45
2019-06-26T05:13:39.097Z,76.17
2019-06-26T05:16:15.103Z,77.27
2019-06-26T05:18:42.318Z,74.50
2019-06-26T05:21:13.074Z,77.80
2019-06-26T05:23:43.828Z,78.33
2019-06-26T05:26:14.755Z,77.32
2019-06-26T05:28:45.430Z,73.30
2019-06-26T05:31:16.113Z,68.50
2019-06-26T05:33:47.424Z,69.60
2019-06-26T05:36:18.125Z,67.92
2019-06-26T05:38:48.741Z,66.30
2019-06-26T05:41:19.562Z,65.35
2019-06-26T05:43:50.208Z,67.20
2019-06-26T05:46:30.511Z,63.77
2019-06-26T05:48:53.312Z,64.22
2019-06-26T05:51:24.169Z,61.80
2019-06-26T05:53:54.858Z,64.85
2019-06-26T05:56:25.580Z,63.83
2019-06-26T05:58:56.434Z,65.92
2019-06-26T06:01:27.373Z,66.72
2019-06-26T06:03:59.172Z,63.67
2019-06-26T06:06:41.079Z,64.57
2019-06-26T06:09:02.577Z,64.95
2019-06-26T06:11:33.513Z,63.73
2019-06-26T06:14:04.288Z,65.17
2019-06-26T06:16:46.777Z,63.52
2019-06-26T06:19:07.478Z,60.35
2019-06-26T06:21:38.260Z,63.85
2019-06-26T06:24:10.087Z,62.38
2019-06-26T06:26:40.715Z,63.58
2019-06-26T06:29:11.395Z,62.25
2019-06-26T06:31:42.085Z,60.73
2019-06-26T06:34:12.763Z,62.63
2019-06-26T06:36:43.443Z,59.25
2019-06-26T06:39:14.184Z,60.00
2019-06-26T06:41:44.883Z,63.30
2019-06-26T06:44:15.704Z,61.26
2019-06-26T06:46:59.616Z,60.88
2019-06-26T06:49:19.011Z,58.23
2019-06-26T06:51:50.073Z,58.20
2019-06-26T06:54:20.820Z,57.90
2019-06-26T06:56:51.505Z,60.98
2019-06-26T06:59:22.639Z,59.27
2019-06-26T07:01:53.295Z,59.48
2019-06-26T07:04:23.991Z,55.90
2019-06-26T07:06:54.685Z,57.78
2019-06-26T07:09:25.488Z,57.45
2019-06-26T07:11:56.350Z,57.00
2019-06-26T07:14:27.211Z,56.28
2019-06-26T07:17:01.348Z,54.20
2019-06-26T07:19:30.489Z,56.53
2019-06-26T07:22:01.297Z,56.67
2019-06-26T07:24:32.029Z,53.30
2019-06-26T07:27:02.651Z,55.95
2019-06-26T07:29:33.399Z,58.55
2019-06-26T07:32:04.067Z,56.77
2019-06-26T07:34:34.978Z,55.58
2019-06-26T07:37:05.753Z,56.58
2019-06-26T07:39:36.676Z,55.63
2019-06-26T07:42:07.364Z,53.75
2019-06-26T07:44:38.092Z,53.28
2019-06-26T07:47:22.621Z,55.30
2019-06-26T07:49:41.837Z,50.95
2019-06-26T07:52:12.476Z,48.93
2019-06-26T07:54:43.173Z,53.30
2019-06-26T07:57:13.975Z,49.55
2019-06-26T07:59:44.635Z,51.08
2019-06-26T08:02:16.973Z,52.05
2019-06-26T08:04:47.771Z,49.80
2019-06-26T08:07:18.483Z,52.23
2019-06-26T08:09:49.352Z,51.67
2019-06-26T08:12:20.064Z,50.90
2019-06-26T08:14:50.765Z,52.27
2019-06-26T08:17:21.481Z,49.90
2019-06-26T08:19:52.146Z,48.13
2019-06-26T08:22:22.966Z,47.27
2019-06-26T08:24:53.760Z,48.10
2019-06-26T08:27:24.798Z,47.45
2019-06-26T08:29:55.784Z,46.23
2019-06-26T08:32:26.505Z,46.20
2019-06-26T08:34:57.193Z,44.07
2019-06-26T08:37:28.120Z,44.55
2019-06-26T08:39:58.817Z,41.05
2019-06-26T08:42:29.542Z,38.50
2019-06-26T08:45:00.467Z,37.33
2019-06-26T08:47:31.314Z,37.58
2019-06-26T08:50:02.535Z,34.85
2019-06-26T08:52:33.652Z,34.53
2019-06-26T08:55:08.490Z,34.03
2019-06-26T08:57:39.332Z,32.60
2019-06-26T09:00:11.882Z,31.62
2019-06-26T09:02:42.609Z,32.23
2019-06-26T09:05:14.038Z,32.00
2019-06-26T09:07:44.723Z,32.40
2019-06-26T09:10:15.836Z,29.52
2019-06-26T09:12:46.851Z,29.05
2019-06-26T09:15:17.986Z,28.27
2019-06-26T09:17:48.671Z,26.57
2019-06-26T09:20:29.772Z,26.07
2019-06-26T09:23:00.516Z,27.30
2019-06-26T09:25:31.290Z,26.73
2019-06-26T09:28:01.955Z,26.15
2019-06-26T09:30:32.839Z,26.93
2019-06-26T09:33:03.501Z,27.20
2019-06-26T09:35:35.106Z,27.30
2019-06-26T09:38:06.173Z,27.37
2019-06-26T09:40:37.039Z,25.17
2019-06-26T09:43:07.832Z,26.42
2019-06-26T09:45:38.506Z,24.57
2019-06-26T09:48:09.974Z,24.25
2019-06-26T09:50:40.707Z,22.98
2019-06-26T09:53:11.497Z,23.10
2019-06-26T09:55:42.330Z,20.93
2019-06-26T09:58:13.752Z,19.40
2019-06-26T10:00:44.577Z,20.48
2019-06-26T10:03:15.419Z,18.15
2019-06-26T10:05:46.171Z,17.98
2019-06-26T10:08:16.830Z,17.55
2019-06-26T10:10:47.808Z,16.87
2019-06-26T10:13:18.681Z,16.75
2019-06-26T10:15:49.456Z,17.23
2019-06-26T10:18:20.353Z,16.95
2019-06-26T10:20:51.061Z,17.37
2019-06-26T10:23:21.834Z,18.07
2019-06-26T10:25:53.254Z,18.90
2019-06-26T10:28:27.606Z,18.20
2019-06-26T10:30:58.229Z,18.90
2019-06-26T10:33:29.014Z,20.30
2019-06-26T10:35:59.775Z,19.27
2019-06-26T10:38:31.672Z,19.00
2019-06-26T10:41:02.473Z,18.12
2019-06-26T10:43:34.409Z,15.50
2019-06-26T10:46:06.601Z,16.58
2019-06-26T10:48:40.911Z,14.70
2019-06-26T10:51:11.650Z,15.65
2019-06-26T10:53:42.381Z,13.15
2019-06-26T10:56:13.163Z,13.65
2019-06-26T10:58:43.847Z,14.40
2019-06-26T11:01:14.671Z,14.43
2019-06-26T11:03:45.467Z,12.53
2019-06-26T11:06:16.211Z,13.07
2019-06-26T11:08:46.925Z,12.00
2019-06-26T11:11:17.594Z,12.40
2019-06-26T11:13:48.414Z,14.00
2019-06-26T11:16:19.089Z,13.37
2019-06-26T11:18:49.857Z,11.90
2019-06-26T11:21:20.556Z,12.15
2019-06-26T11:23:52.301Z,12.05
2019-06-26T11:26:23.060Z,12.40
2019-06-26T11:28:53.892Z,12.20
2019-06-26T11:31:24.658Z,11.85
2019-06-26T11:33:55.567Z,13.00
2019-06-26T11:36:26.250Z,11.23
2019-06-26T11:38:57.001Z,11.83
2019-06-26T11:41:28.786Z,12.98
2019-06-26T11:43:59.738Z,13.18
2019-06-26T11:46:30.467Z,11.53
2019-06-26T11:49:01.105Z,11.30
2019-06-26T11:51:31.994Z,10.82
2019-06-26T11:54:02.721Z,9.93
2019-06-26T11:56:33.492Z,11.50
2019-06-26T11:59:04.509Z,9.33
2019-06-26T12:01:35.186Z,10.70
2019-06-26T12:04:06.227Z,10.88
2019-06-26T12:06:37.120Z,10.68
2019-06-26T12:09:09.643Z,9.38
2019-06-26T12:11:40.655Z,10.65
2019-06-26T12:14:11.504Z,10.30
2019-06-26T12:16:42.399Z,10.80
2019-06-26T12:19:13.156Z,10.68
2019-06-26T12:21:43.858Z,9.98
2019-06-26T12:24:14.595Z,11.12
2019-06-26T12:26:45.411Z,10.25
2019-06-26T12:29:16.015Z,9.25
2019-06-26T12:31:46.728Z,8.93
2019-06-26T12:34:17.375Z,10.40
2019-06-26T12:36:48.114Z,8.68
2019-06-26T12:39:18.835Z,9.95
2019-06-26T12:41:49.540Z,9.93
2019-06-26T12:44:20.155Z,10.20
2019-06-26T12:46:50.877Z,10.35
2019-06-26T12:49:21.496Z,9.63
2019-06-26T12:51:53.128Z,9.70
2019-06-26T12:54:23.836Z,8.85
2019-06-26T12:56:54.879Z,10.15
2019-06-26T12:59:25.613Z,10.43
2019-06-26T13:01:56.562Z,10.93
2019-06-26T13:04:27.259Z,8.55
2019-06-26T13:06:59.062Z,9.98
2019-06-26T13:09:29.835Z,10.03
2019-06-26T13:12:00.576Z,11.25
2019-06-26T13:14:31.199Z,9.60
2019-06-26T13:17:02.132Z,10.38
2019-06-26T13:19:32.931Z,9.35
2019-06-26T13:22:03.588Z,9.88
2019-06-26T13:24:34.487Z,10.70
2019-06-26T13:27:05.345Z,10.32
2019-06-26T13:29:36.018Z,9.68
2019-06-26T13:32:07.369Z,9.54
2019-06-26T13:34:38.078Z,8.05
2019-06-26T13:37:08.724Z,8.25
2019-06-26T13:39:39.379Z,8.58
2019-06-26T13:42:10.784Z,9.38
2019-06-26T13:44:41.419Z,8.40
2019-06-26T13:47:12.150Z,10.03
2019-06-26T13:49:42.879Z,8.25
2019-06-26T13:52:13.799Z,8.70
2019-06-26T13:54:46.231Z,9.40
2019-06-26T13:57:17.029Z,8.15
2019-06-26T13:59:47.739Z,9.40
2019-06-26T14:02:19.946Z,8.58
2019-06-26T14:04:50.766Z,9.53
2019-06-26T14:07:21.529Z,6.97
2019-06-26T14:09:52.257Z,9.20
2019-06-26T14:12:23.021Z,8.93
2019-06-26T14:14:57.824Z,8.65
2019-06-26T14:17:27.232Z,8.40
2019-06-26T14:19:57.865Z,9.43
2019-06-26T14:22:28.676Z,9.17
2019-06-26T14:24:59.563Z,7.25
2019-06-26T14:27:30.231Z,9.23
2019-06-26T14:30:01.081Z,8.73
2019-06-26T14:32:31.685Z,8.00
2019-06-26T14:35:02.534Z,8.33
2019-06-26T14:37:33.306Z,9.88
2019-06-26T14:40:05.989Z,7.70
2019-06-26T14:42:36.785Z,8.03
2019-06-26T14:45:10.211Z,7.92
2019-06-26T14:47:40.828Z,6.83
2019-06-26T14:50:13.226Z,8.20
2019-06-26T14:52:45.998Z,7.37
2019-06-26T14:55:16.327Z,7.62
2019-06-26T14:57:47.013Z,7.35
2019-06-26T15:00:18.893Z,6.78
2019-06-26T15:02:49.595Z,6.72
2019-06-26T15:10:07.773Z,5.87
2019-06-26T15:13:14.938Z,5.25
2019-06-26T15:15:44.403Z,6.17
2019-06-26T15:18:13.920Z,5.00
2019-06-26T15:20:44.550Z,5.27
2019-06-26T15:26:23.459Z,5.13
2019-06-26T15:28:52.930Z,4.90
2019-06-26T15:31:22.606Z,4.80
2019-06-26T15:33:52.239Z,4.60
2019-06-26T15:36:21.685Z,5.05
2019-06-26T15:38:51.235Z,4.87
2019-06-26T15:41:20.725Z,4.40
2019-06-26T15:43:50.414Z,4.15
2019-06-26T15:46:19.978Z,3.77
2019-06-26T15:48:50.475Z,3.95
2019-06-26T15:51:21.401Z,4.53
2019-06-26T15:53:50.869Z,3.92
2019-06-26T15:56:20.382Z,4.30
2019-06-26T15:58:49.857Z,3.70
2019-06-26T16:01:19.361Z,3.62
2019-06-26T16:03:49.969Z,3.75
2019-06-26T16:06:19.521Z,3.37
2019-06-26T16:08:49.075Z,3.33
2019-06-26T16:11:19.615Z,3.95
2019-06-26T16:13:50.189Z,4.27
2019-06-26T16:16:20.234Z,3.58
2019-06-26T16:18:51.299Z,3.42
2019-06-26T16:21:21.104Z,3.92
2019-06-26T16:23:50.649Z,3.52
2019-06-26T16:26:20.253Z,3.55
2019-06-26T16:28:49.832Z,3.70
2019-06-26T16:31:19.395Z,3.42
2019-06-26T16:33:49.031Z,3.50
2019-06-26T16:36:18.496Z,2.77
2019-06-26T16:38:48.050Z,3.37
2019-06-26T16:41:17.689Z,3.17
2019-06-26T16:43:47.207Z,3.70
2019-06-26T16:46:18.084Z,2.58
2019-06-26T16:48:47.726Z,2.72
2019-06-26T16:51:18.332Z,2.90
2019-06-26T16:53:47.835Z,2.47
2019-06-26T16:56:17.441Z,3.35
2019-06-26T16:58:47.128Z,2.22
2019-06-26T17:01:16.635Z,2.40
2019-06-26T17:03:46.078Z,2.67
2019-06-26T17:06:16.574Z,2.80
2019-06-26T17:08:46.039Z,2.35
2019-06-26T17:11:15.463Z,2.67
2019-06-26T17:13:45.036Z,2.12
2019-06-26T17:16:14.481Z,2.70
2019-06-26T17:18:44.069Z,1.67
2019-06-26T17:21:13.687Z,2.35
2019-06-26T17:23:43.262Z,1.80
2019-06-26T17:26:15.271Z,1.96
2019-06-26T17:28:44.841Z,1.95
2019-06-26T17:31:14.295Z,2.45
2019-06-26T17:33:43.712Z,2.02
2019-06-26T17:36:13.303Z,1.90
2019-06-26T17:38:42.900Z,2.10
2019-06-26T17:41:18.268Z,2.20
2019-06-26T17:43:47.855Z,2.77
2019-06-26T17:46:31.383Z,2.25
2019-06-26T17:49:01.116Z,1.80
2019-06-26T17:51:30.635Z,1.98
2019-06-26T17:54:00.313Z,2.37
2019-06-26T17:56:29.875Z,1.90
2019-06-26T17:58:59.556Z,2.25
2019-06-26T18:01:41.428Z,2.00
2019-06-26T18:04:10.972Z,2.10
2019-06-26T18:06:41.539Z,2.27
2019-06-26T18:09:12.326Z,1.98
2019-06-26T18:11:42.981Z,2.00
2019-06-26T18:14:12.523Z,2.23
2019-06-26T18:16:43.101Z,2.05
2019-06-26T18:19:12.620Z,2.15
2019-06-26T18:21:42.218Z,2.22
2019-06-26T18:24:11.916Z,2.17
2019-06-26T18:26:41.476Z,2.15
2019-06-26T18:29:11.056Z,2.37
2019-06-26T18:31:43.900Z,2.10
2019-06-26T18:34:13.464Z,2.27
2019-06-26T18:36:42.906Z,2.20
2019-06-26T18:39:12.424Z,1.85
2019-06-26T18:41:42.095Z,2.10
2019-06-26T18:44:11.563Z,2.00
2019-06-26T18:46:42.292Z,2.23
2019-06-26T18:49:11.738Z,2.87
2019-06-26T18:51:42.269Z,2.50
2019-06-26T18:54:11.852Z,1.90
2019-06-26T18:56:41.359Z,2.00
2019-06-26T18:59:10.929Z,1.75
2019-06-26T19:01:40.504Z,1.87
2019-06-26T19:04:10.057Z,2.80
2019-06-26T19:06:39.534Z,2.20
2019-06-26T19:09:09.104Z,2.08
2019-06-26T19:11:38.571Z,1.98
2019-06-26T19:14:09.590Z,1.62
2019-06-26T19:16:39.093Z,1.82
2019-06-26T19:19:12.132Z,2.17
2019-06-26T19:21:40.005Z,2.20
2019-06-26T19:24:10.777Z,1.94
2019-06-26T19:26:40.587Z,1.80
2019-06-26T19:29:10.719Z,2.00
2019-06-26T19:31:41.368Z,1.50
2019-06-26T19:34:10.895Z,2.00
2019-06-26T19:36:50.088Z,1.87
2019-06-26T19:39:11.809Z,1.92
2019-06-26T19:41:41.504Z,2.10
2019-06-26T19:44:11.026Z,1.82
2019-06-26T19:46:42.038Z,1.65
2019-06-26T19:49:11.624Z,1.57
2019-06-26T19:51:41.182Z,2.02
2019-06-26T19:54:26.129Z,2.47
2019-06-26T19:56:41.886Z,2.00
2019-06-26T19:59:11.420Z,2.20
2019-06-26T20:01:40.876Z,2.05
2019-06-26T20:04:13.422Z,1.98
2019-06-26T20:06:42.952Z,1.93
2019-06-26T20:09:12.608Z,2.15
2019-06-26T20:11:42.048Z,2.30
2019-06-26T20:14:11.672Z,2.22
2019-06-26T20:16:41.206Z,1.90
2019-06-26T20:19:10.659Z,2.40
2019-06-26T20:21:40.403Z,2.17
2019-06-26T20:24:09.980Z,2.90
2019-06-26T20:26:39.406Z,2.25
2019-06-26T20:29:08.947Z,2.30
2019-06-26T20:31:38.406Z,1.98
2019-06-26T20:34:08.075Z,2.35
2019-06-26T20:36:37.566Z,2.72
2019-06-26T20:39:07.256Z,2.20
2019-06-26T20:41:36.802Z,2.33
2019-06-26T20:44:07.073Z,2.15
2019-06-26T20:46:36.629Z,2.80
2019-06-26T20:49:06.178Z,2.08
2019-06-26T20:51:35.725Z,1.95
2019-06-26T20:54:05.879Z,2.40
2019-06-26T20:56:35.505Z,2.37
2019-06-26T20:59:05.046Z,2.33
2019-06-26T21:01:34.761Z,2.45
2019-06-26T21:04:04.886Z,2.40
2019-06-26T21:06:34.559Z,2.50
2019-06-26T21:09:04.998Z,2.42
2019-06-26T21:11:34.757Z,2.45
2019-06-26T21:14:04.924Z,2.52
2019-06-26T21:16:34.433Z,2.30
2019-06-26T21:19:04.037Z,2.92
2019-06-26T21:21:33.493Z,2.45
2019-06-26T21:24:03.278Z,2.45
2019-06-26T21:26:32.715Z,2.60
2019-06-26T21:29:02.182Z,2.80
2019-06-26T21:31:31.933Z,2.33
2019-06-26T21:34:01.487Z,2.35
2019-06-26T21:36:31.072Z,2.50
2019-06-26T21:39:00.557Z,2.62
2019-06-26T21:41:31.468Z,2.47
2019-06-26T21:44:00.964Z,3.67
2019-06-26T21:46:30.398Z,2.62
2019-06-26T21:49:00.941Z,2.35
2019-06-26T21:51:30.527Z,2.70
2019-06-26T21:54:00.083Z,3.00
2019-06-26T21:56:47.077Z,2.10
2019-06-26T21:59:34.400Z,2.08
2019-06-26T22:02:22.022Z,2.37
2019-06-26T22:04:50.784Z,2.30
2019-06-26T22:07:27.766Z,2.47
2019-06-26T22:09:58.934Z,2.92
2019-06-26T22:12:28.503Z,2.33
2019-06-26T22:14:58.009Z,3.13
2019-06-26T22:17:27.748Z,2.83
2019-06-26T22:19:57.310Z,3.05
2019-06-26T22:22:26.772Z,2.73
2019-06-26T22:24:56.348Z,3.00
2019-06-26T22:27:26.968Z,2.40
2019-06-26T22:29:56.450Z,2.55
2019-06-26T22:32:25.930Z,2.40
2019-06-26T22:34:55.455Z,2.55
2019-06-26T22:37:24.996Z,2.55
2019-06-26T22:39:54.571Z,2.37
2019-06-26T22:42:24.057Z,2.50
2019-06-26T22:44:53.661Z,2.98
2019-06-26T22:47:23.230Z,2.77
2019-06-26T22:49:52.745Z,2.80
2019-06-26T22:52:22.312Z,3.23
2019-06-26T22:54:51.910Z,3.15
2019-06-26T22:57:21.392Z,3.02
2019-06-26T22:59:51.105Z,2.83
2019-06-26T23:02:20.608Z,3.30
2019-06-26T23:04:50.188Z,2.75
2019-06-26T23:07:19.699Z,3.25
2019-06-26T23:09:49.210Z,3.08
2019-06-26T23:12:18.820Z,3.27
2019-06-26T23:15:00.366Z,3.58
2019-06-26T23:17:29.885Z,3.00
2019-06-26T23:19:59.354Z,3.27
2019-06-26T23:22:29.137Z,3.12
2019-06-26T23:24:58.564Z,3.05
2019-06-26T23:27:28.076Z,3.25
2019-06-26T23:29:57.535Z,2.98
2019-06-26T23:32:27.037Z,2.92
2019-06-26T23:34:57.557Z,3.20
2019-06-26T23:37:27.024Z,3.02
2019-06-26T23:39:56.834Z,3.02
2019-06-26T23:42:26.385Z,3.27
2019-06-26T23:44:55.898Z,2.98
2019-06-26T23:47:25.417Z,2.60
2019-06-26T23:49:54.912Z,3.08
2019-06-26T23:52:24.434Z,2.50
2019-06-26T23:54:53.960Z,3.08
2019-06-26T23:57:23.469Z,3.02
2019-06-26T23:59:52.903Z,3.58
